sensor_id;sensor_type;location;lat;lon;timestamp;P1;durP1;ratioP1;P2;durP2;ratioP2
71973;SDS011;59840;52.122;5.404;2022-11-20T00:01:18;12.25;;;5.43;;
71973;SDS011;59840;52.122;5.404;2022-11-20T00:03:47;11.73;;;6.10;;
71973;SDS011;59840;52.122;5.404;2022-11-20T00:06:15;11.65;;;5.97;;
71973;SDS011;59840;52.122;5.404;2022-11-20T00:08:43;11.87;;;5.77;;
71973;SDS011;59840;52.122;5.404;2022-11-20T00:11:12;13.18;;;5.68;;
71973;SDS011;59840;52.122;5.404;2022-11-20T00:13:42;7.20;;;4.13;;
71973;SDS011;59840;52.122;5.404;2022-11-20T00:16:10;6.72;;;4.20;;
71973;SDS011;59840;52.122;5.404;2022-11-20T00:18:37;8.68;;;4.45;;
71973;SDS011;59840;52.122;5.404;2022-11-20T00:21:11;7.10;;;4.47;;
71973;SDS011;59840;52.122;5.404;2022-11-20T00:23:40;6.97;;;3.92;;
71973;SDS011;59840;52.122;5.404;2022-11-20T00:26:08;6.93;;;4.47;;
71973;SDS011;59840;52.122;5.404;2022-11-20T00:28:36;7.68;;;4.15;;
71973;SDS011;59840;52.122;5.404;2022-11-20T00:31:03;6.85;;;4.20;;
71973;SDS011;59840;52.122;5.404;2022-11-20T00:33:31;9.70;;;4.53;;
71973;SDS011;59840;52.122;5.404;2022-11-20T00:35:59;7.68;;;4.50;;
71973;SDS011;59840;52.122;5.404;2022-11-20T00:38:37;8.40;;;4.78;;
71973;SDS011;59840;52.122;5.404;2022-11-20T00:41:05;9.27;;;4.45;;
71973;SDS011;59840;52.122;5.404;2022-11-20T00:43:33;10.98;;;5.20;;
71973;SDS011;59840;52.122;5.404;2022-11-20T00:46:00;10.17;;;5.40;;
71973;SDS011;59840;52.122;5.404;2022-11-20T00:48:29;9.30;;;5.22;;
71973;SDS011;59840;52.122;5.404;2022-11-20T00:50:56;10.43;;;5.38;;
71973;SDS011;59840;52.122;5.404;2022-11-20T00:53:24;11.75;;;6.13;;
71973;SDS011;59840;52.122;5.404;2022-11-20T00:55:54;12.65;;;7.10;;
71973;SDS011;59840;52.122;5.404;2022-11-20T00:58:29;11.07;;;6.40;;
71973;SDS011;59840;52.122;5.404;2022-11-20T01:01:03;9.80;;;6.03;;
71973;SDS011;59840;52.122;5.404;2022-11-20T01:03:34;12.02;;;6.30;;
71973;SDS011;59840;52.122;5.404;2022-11-20T01:06:03;11.98;;;6.25;;
71973;SDS011;59840;52.122;5.404;2022-11-20T01:08:32;12.90;;;6.32;;
71973;SDS011;59840;52.122;5.404;2022-11-20T01:11:07;22.17;;;7.77;;
71973;SDS011;59840;52.122;5.404;2022-11-20T01:13:38;9.82;;;5.57;;
71973;SDS011;59840;52.122;5.404;2022-11-20T01:16:06;8.93;;;5.55;;
71973;SDS011;59840;52.122;5.404;2022-11-20T01:18:33;11.55;;;6.78;;
71973;SDS011;59840;52.122;5.404;2022-11-20T01:21:02;11.30;;;6.28;;
71973;SDS011;59840;52.122;5.404;2022-11-20T01:23:31;11.37;;;6.20;;
71973;SDS011;59840;52.122;5.404;2022-11-20T01:26:03;15.80;;;7.00;;
71973;SDS011;59840;52.122;5.404;2022-11-20T01:28:31;11.80;;;6.18;;
71973;SDS011;59840;52.122;5.404;2022-11-20T01:31:01;12.25;;;6.80;;
71973;SDS011;59840;52.122;5.404;2022-11-20T01:33:43;12.60;;;6.25;;
71973;SDS011;59840;52.122;5.404;2022-11-20T01:36:11;10.30;;;5.70;;
71973;SDS011;59840;52.122;5.404;2022-11-20T01:38:38;9.90;;;5.63;;
71973;SDS011;59840;52.122;5.404;2022-11-20T01:41:05;11.63;;;5.80;;
71973;SDS011;59840;52.122;5.404;2022-11-20T01:43:33;9.40;;;5.90;;
71973;SDS011;59840;52.122;5.404;2022-11-20T01:46:01;10.75;;;5.95;;
71973;SDS011;59840;52.122;5.404;2022-11-20T01:48:36;11.17;;;5.87;;
71973;SDS011;59840;52.122;5.404;2022-11-20T01:51:13;9.82;;;5.45;;
71973;SDS011;59840;52.122;5.404;2022-11-20T01:53:45;9.32;;;5.28;;
71973;SDS011;59840;52.122;5.404;2022-11-20T01:56:12;10.20;;;5.70;;
71973;SDS011;59840;52.122;5.404;2022-11-20T01:58:42;8.45;;;5.18;;
71973;SDS011;59840;52.122;5.404;2022-11-20T02:01:14;7.57;;;5.37;;
71973;SDS011;59840;52.122;5.404;2022-11-20T02:03:41;9.85;;;5.30;;
71973;SDS011;59840;52.122;5.404;2022-11-20T02:06:29;11.55;;;5.10;;
71973;SDS011;59840;52.122;5.404;2022-11-20T02:09:00;8.68;;;5.10;;
71973;SDS011;59840;52.122;5.404;2022-11-20T02:11:27;13.40;;;5.28;;
71973;SDS011;59840;52.122;5.404;2022-11-20T02:13:55;10.00;;;4.70;;
71973;SDS011;59840;52.122;5.404;2022-11-20T02:16:43;7.50;;;4.40;;
71973;SDS011;59840;52.122;5.404;2022-11-20T02:19:33;9.70;;;4.10;;
71973;SDS011;59840;52.122;5.404;2022-11-20T02:22:00;11.55;;;4.05;;
71973;SDS011;59840;52.122;5.404;2022-11-20T02:24:34;8.95;;;4.82;;
71973;SDS011;59840;52.122;5.404;2022-11-20T02:32:27;7.78;;;3.70;;
71973;SDS011;59840;52.122;5.404;2022-11-20T02:35:05;4.90;;;3.55;;
71973;SDS011;59840;52.122;5.404;2022-11-20T02:37:44;7.63;;;4.18;;
71973;SDS011;59840;52.122;5.404;2022-11-20T02:40:13;7.43;;;3.90;;
71973;SDS011;59840;52.122;5.404;2022-11-20T02:42:40;9.55;;;4.15;;
71973;SDS011;59840;52.122;5.404;2022-11-20T02:45:07;7.43;;;4.68;;
71973;SDS011;59840;52.122;5.404;2022-11-20T02:47:34;9.07;;;4.60;;
71973;SDS011;59840;52.122;5.404;2022-11-20T02:50:02;9.05;;;4.75;;
71973;SDS011;59840;52.122;5.404;2022-11-20T02:52:29;12.13;;;5.43;;
71973;SDS011;59840;52.122;5.404;2022-11-20T02:54:56;11.90;;;5.38;;
71973;SDS011;59840;52.122;5.404;2022-11-20T02:57:23;17.75;;;7.25;;
71973;SDS011;59840;52.122;5.404;2022-11-20T02:59:49;20.08;;;8.35;;
71973;SDS011;59840;52.122;5.404;2022-11-20T03:02:16;15.07;;;7.63;;
71973;SDS011;59840;52.122;5.404;2022-11-20T03:04:43;13.30;;;6.03;;
71973;SDS011;59840;52.122;5.404;2022-11-20T03:07:09;15.73;;;6.75;;
71973;SDS011;59840;52.122;5.404;2022-11-20T03:09:36;15.10;;;6.80;;
71973;SDS011;59840;52.122;5.404;2022-11-20T03:12:02;16.52;;;7.82;;
71973;SDS011;59840;52.122;5.404;2022-11-20T03:14:29;13.38;;;5.90;;
71973;SDS011;59840;52.122;5.404;2022-11-20T03:16:55;11.07;;;5.43;;
71973;SDS011;59840;52.122;5.404;2022-11-20T03:19:22;8.70;;;4.95;;
71973;SDS011;59840;52.122;5.404;2022-11-20T03:21:49;9.38;;;4.85;;
71973;SDS011;59840;52.122;5.404;2022-11-20T03:24:15;7.28;;;4.47;;
71973;SDS011;59840;52.122;5.404;2022-11-20T03:26:42;9.35;;;4.68;;
71973;SDS011;59840;52.122;5.404;2022-11-20T03:29:09;11.10;;;4.67;;
71973;SDS011;59840;52.122;5.404;2022-11-20T03:31:36;9.80;;;4.25;;
71973;SDS011;59840;52.122;5.404;2022-11-20T03:34:09;7.20;;;3.97;;
71973;SDS011;59840;52.122;5.404;2022-11-20T03:36:37;7.45;;;4.00;;
71973;SDS011;59840;52.122;5.404;2022-11-20T03:39:05;7.20;;;3.95;;
71973;SDS011;59840;52.122;5.404;2022-11-20T03:41:35;6.77;;;4.57;;
71973;SDS011;59840;52.122;5.404;2022-11-20T03:44:04;10.38;;;3.97;;
71973;SDS011;59840;52.122;5.404;2022-11-20T03:46:32;7.05;;;4.35;;
71973;SDS011;59840;52.122;5.404;2022-11-20T03:48:59;8.15;;;3.65;;
71973;SDS011;59840;52.122;5.404;2022-11-20T03:51:26;9.20;;;4.03;;
71973;SDS011;59840;52.122;5.404;2022-11-20T03:54:01;5.97;;;3.67;;
71973;SDS011;59840;52.122;5.404;2022-11-20T03:56:30;7.80;;;3.63;;
71973;SDS011;59840;52.122;5.404;2022-11-20T03:58:59;6.60;;;3.85;;
71973;SDS011;59840;52.122;5.404;2022-11-20T04:01:35;6.85;;;3.70;;
71973;SDS011;59840;52.122;5.404;2022-11-20T04:04:03;9.13;;;3.75;;
71973;SDS011;59840;52.122;5.404;2022-11-20T04:06:33;7.17;;;4.23;;
71973;SDS011;59840;52.122;5.404;2022-11-20T04:09:01;7.85;;;4.20;;
71973;SDS011;59840;52.122;5.404;2022-11-20T04:11:29;6.40;;;3.40;;
71973;SDS011;59840;52.122;5.404;2022-11-20T04:13:58;8.05;;;3.83;;
71973;SDS011;59840;52.122;5.404;2022-11-20T04:16:28;5.70;;;4.10;;
71973;SDS011;59840;52.122;5.404;2022-11-20T04:18:57;7.70;;;3.90;;
71973;SDS011;59840;52.122;5.404;2022-11-20T04:21:26;7.70;;;4.22;;
71973;SDS011;59840;52.122;5.404;2022-11-20T04:23:53;7.90;;;4.20;;
71973;SDS011;59840;52.122;5.404;2022-11-20T04:26:21;6.65;;;3.85;;
71973;SDS011;59840;52.122;5.404;2022-11-20T04:28:49;9.00;;;3.80;;
71973;SDS011;59840;52.122;5.404;2022-11-20T04:31:17;9.17;;;3.93;;
71973;SDS011;59840;52.122;5.404;2022-11-20T04:33:46;6.32;;;3.53;;
71973;SDS011;59840;52.122;5.404;2022-11-20T04:36:14;5.57;;;3.40;;
71973;SDS011;59840;52.122;5.404;2022-11-20T04:38:51;6.78;;;3.40;;
71973;SDS011;59840;52.122;5.404;2022-11-20T04:41:23;5.93;;;3.58;;
71973;SDS011;59840;52.122;5.404;2022-11-20T04:43:52;6.53;;;3.67;;
71973;SDS011;59840;52.122;5.404;2022-11-20T04:46:25;7.30;;;4.38;;
71973;SDS011;59840;52.122;5.404;2022-11-20T04:48:53;7.95;;;4.03;;
71973;SDS011;59840;52.122;5.404;2022-11-20T04:51:20;8.52;;;3.88;;
71973;SDS011;59840;52.122;5.404;2022-11-20T04:53:46;7.38;;;4.07;;
71973;SDS011;59840;52.122;5.404;2022-11-20T04:56:13;7.00;;;5.07;;
71973;SDS011;59840;52.122;5.404;2022-11-20T04:58:40;9.32;;;3.70;;
71973;SDS011;59840;52.122;5.404;2022-11-20T05:01:11;6.40;;;3.33;;
71973;SDS011;59840;52.122;5.404;2022-11-20T05:03:39;8.27;;;4.13;;
71973;SDS011;59840;52.122;5.404;2022-11-20T05:06:09;8.07;;;4.05;;
71973;SDS011;59840;52.122;5.404;2022-11-20T05:08:38;5.97;;;2.97;;
71973;SDS011;59840;52.122;5.404;2022-11-20T05:11:15;7.30;;;3.92;;
71973;SDS011;59840;52.122;5.404;2022-11-20T05:13:44;7.80;;;3.30;;
71973;SDS011;59840;52.122;5.404;2022-11-20T05:16:11;7.43;;;3.38;;
71973;SDS011;59840;52.122;5.404;2022-11-20T05:18:43;8.73;;;3.85;;
71973;SDS011;59840;52.122;5.404;2022-11-20T05:21:10;9.73;;;4.47;;
71973;SDS011;59840;52.122;5.404;2022-11-20T05:23:38;8.43;;;4.50;;
71973;SDS011;59840;52.122;5.404;2022-11-20T05:26:06;12.45;;;4.65;;
71973;SDS011;59840;52.122;5.404;2022-11-20T05:28:33;8.45;;;4.30;;
71973;SDS011;59840;52.122;5.404;2022-11-20T05:31:04;6.15;;;3.17;;
71973;SDS011;59840;52.122;5.404;2022-11-20T05:33:32;5.30;;;3.33;;
71973;SDS011;59840;52.122;5.404;2022-11-20T05:36:00;6.47;;;3.45;;
71973;SDS011;59840;52.122;5.404;2022-11-20T05:38:27;8.05;;;3.90;;
71973;SDS011;59840;52.122;5.404;2022-11-20T05:40:54;6.18;;;3.15;;
71973;SDS011;59840;52.122;5.404;2022-11-20T05:43:20;7.95;;;3.78;;
71973;SDS011;59840;52.122;5.404;2022-11-20T05:45:53;8.40;;;3.87;;
71973;SDS011;59840;52.122;5.404;2022-11-20T05:48:20;6.38;;;3.35;;
71973;SDS011;59840;52.122;5.404;2022-11-20T05:50:47;5.50;;;3.28;;
71973;SDS011;59840;52.122;5.404;2022-11-20T05:53:14;7.93;;;2.92;;
71973;SDS011;59840;52.122;5.404;2022-11-20T05:55:41;7.28;;;3.80;;
71973;SDS011;59840;52.122;5.404;2022-11-20T05:58:07;8.47;;;3.90;;
71973;SDS011;59840;52.122;5.404;2022-11-20T06:00:34;6.18;;;3.53;;
71973;SDS011;59840;52.122;5.404;2022-11-20T06:03:01;7.22;;;4.00;;
71973;SDS011;59840;52.122;5.404;2022-11-20T06:05:28;7.13;;;3.72;;
71973;SDS011;59840;52.122;5.404;2022-11-20T06:07:54;5.10;;;3.53;;
71973;SDS011;59840;52.122;5.404;2022-11-20T06:10:21;7.67;;;3.93;;
71973;SDS011;59840;52.122;5.404;2022-11-20T06:12:47;5.47;;;3.25;;
71973;SDS011;59840;52.122;5.404;2022-11-20T06:15:14;8.20;;;3.95;;
71973;SDS011;59840;52.122;5.404;2022-11-20T06:17:40;6.10;;;3.22;;
71973;SDS011;59840;52.122;5.404;2022-11-20T06:20:07;5.78;;;3.78;;
71973;SDS011;59840;52.122;5.404;2022-11-20T06:22:34;6.30;;;3.50;;
71973;SDS011;59840;52.122;5.404;2022-11-20T06:25:00;6.28;;;3.90;;
71973;SDS011;59840;52.122;5.404;2022-11-20T06:27:27;5.93;;;3.42;;
71973;SDS011;59840;52.122;5.404;2022-11-20T06:29:53;7.57;;;4.55;;
71973;SDS011;59840;52.122;5.404;2022-11-20T06:32:20;7.28;;;3.38;;
71973;SDS011;59840;52.122;5.404;2022-11-20T06:34:46;8.80;;;3.93;;
71973;SDS011;59840;52.122;5.404;2022-11-20T06:37:13;7.18;;;3.85;;
71973;SDS011;59840;52.122;5.404;2022-11-20T06:39:39;7.65;;;3.47;;
71973;SDS011;59840;52.122;5.404;2022-11-20T06:42:06;5.78;;;3.60;;
71973;SDS011;59840;52.122;5.404;2022-11-20T06:44:32;7.43;;;3.80;;
71973;SDS011;59840;52.122;5.404;2022-11-20T06:46:58;6.03;;;3.83;;
71973;SDS011;59840;52.122;5.404;2022-11-20T06:49:26;7.25;;;3.47;;
71973;SDS011;59840;52.122;5.404;2022-11-20T06:51:52;7.60;;;3.90;;
71973;SDS011;59840;52.122;5.404;2022-11-20T06:54:19;9.30;;;4.03;;
71973;SDS011;59840;52.122;5.404;2022-11-20T06:56:48;6.18;;;3.90;;
71973;SDS011;59840;52.122;5.404;2022-11-20T06:59:15;7.33;;;4.07;;
71973;SDS011;59840;52.122;5.404;2022-11-20T07:01:42;6.55;;;3.67;;
71973;SDS011;59840;52.122;5.404;2022-11-20T07:04:08;8.10;;;4.40;;
71973;SDS011;59840;52.122;5.404;2022-11-20T07:06:35;7.72;;;3.30;;
71973;SDS011;59840;52.122;5.404;2022-11-20T07:09:01;4.50;;;3.45;;
71973;SDS011;59840;52.122;5.404;2022-11-20T07:11:28;5.97;;;3.60;;
71973;SDS011;59840;52.122;5.404;2022-11-20T07:13:56;9.30;;;4.05;;
71973;SDS011;59840;52.122;5.404;2022-11-20T07:16:22;5.22;;;3.85;;
71973;SDS011;59840;52.122;5.404;2022-11-20T07:18:49;8.50;;;4.05;;
71973;SDS011;59840;52.122;5.404;2022-11-20T07:21:16;7.97;;;3.75;;
71973;SDS011;59840;52.122;5.404;2022-11-20T07:23:43;7.30;;;4.17;;
71973;SDS011;59840;52.122;5.404;2022-11-20T07:26:10;10.23;;;4.22;;
71973;SDS011;59840;52.122;5.404;2022-11-20T07:28:37;9.32;;;4.00;;
71973;SDS011;59840;52.122;5.404;2022-11-20T07:31:04;9.35;;;4.55;;
71973;SDS011;59840;52.122;5.404;2022-11-20T07:33:32;8.15;;;4.22;;
71973;SDS011;59840;52.122;5.404;2022-11-20T07:35:59;9.93;;;5.07;;
71973;SDS011;59840;52.122;5.404;2022-11-20T07:38:26;9.73;;;4.13;;
71973;SDS011;59840;52.122;5.404;2022-11-20T07:40:53;8.57;;;4.05;;
71973;SDS011;59840;52.122;5.404;2022-11-20T07:43:27;7.03;;;3.92;;
71973;SDS011;59840;52.122;5.404;2022-11-20T07:45:57;9.38;;;4.13;;
71973;SDS011;59840;52.122;5.404;2022-11-20T07:48:24;10.53;;;4.20;;
71973;SDS011;59840;52.122;5.404;2022-11-20T07:50:55;7.85;;;4.57;;
71973;SDS011;59840;52.122;5.404;2022-11-20T07:53:22;7.65;;;4.32;;
71973;SDS011;59840;52.122;5.404;2022-11-20T07:55:49;8.05;;;4.07;;
71973;SDS011;59840;52.122;5.404;2022-11-20T07:58:18;8.77;;;4.45;;
71973;SDS011;59840;52.122;5.404;2022-11-20T08:00:46;7.90;;;4.83;;
71973;SDS011;59840;52.122;5.404;2022-11-20T08:03:13;7.32;;;4.65;;
71973;SDS011;59840;52.122;5.404;2022-11-20T08:05:39;8.13;;;4.53;;
71973;SDS011;59840;52.122;5.404;2022-11-20T08:08:06;8.63;;;5.05;;
71973;SDS011;59840;52.122;5.404;2022-11-20T08:10:33;9.63;;;5.43;;
71973;SDS011;59840;52.122;5.404;2022-11-20T08:13:00;8.03;;;5.00;;
71973;SDS011;59840;52.122;5.404;2022-11-20T08:15:47;9.13;;;5.55;;
71973;SDS011;59840;52.122;5.404;2022-11-20T08:18:16;8.65;;;5.07;;
71973;SDS011;59840;52.122;5.404;2022-11-20T08:21:02;8.25;;;4.53;;
71973;SDS011;59840;52.122;5.404;2022-11-20T08:23:30;9.88;;;5.53;;
71973;SDS011;59840;52.122;5.404;2022-11-20T08:25:56;8.17;;;4.90;;
71973;SDS011;59840;52.122;5.404;2022-11-20T08:28:23;16.55;;;5.75;;
71973;SDS011;59840;52.122;5.404;2022-11-20T08:30:50;13.57;;;5.90;;
71973;SDS011;59840;52.122;5.404;2022-11-20T08:33:16;12.05;;;5.47;;
71973;SDS011;59840;52.122;5.404;2022-11-20T08:35:44;10.77;;;5.80;;
71973;SDS011;59840;52.122;5.404;2022-11-20T08:38:10;8.03;;;5.57;;
71973;SDS011;59840;52.122;5.404;2022-11-20T08:40:37;8.07;;;5.60;;
71973;SDS011;59840;52.122;5.404;2022-11-20T08:43:04;12.80;;;5.97;;
71973;SDS011;59840;52.122;5.404;2022-11-20T08:45:30;11.77;;;6.25;;
71973;SDS011;59840;52.122;5.404;2022-11-20T08:48:00;12.55;;;6.18;;
71973;SDS011;59840;52.122;5.404;2022-11-20T08:50:28;12.43;;;6.20;;
71973;SDS011;59840;52.122;5.404;2022-11-20T08:52:55;11.55;;;5.88;;
71973;SDS011;59840;52.122;5.404;2022-11-20T08:55:21;14.35;;;6.20;;
71973;SDS011;59840;52.122;5.404;2022-11-20T08:57:48;13.55;;;5.93;;
71973;SDS011;59840;52.122;5.404;2022-11-20T09:00:16;10.55;;;5.85;;
71973;SDS011;59840;52.122;5.404;2022-11-20T09:02:43;9.33;;;5.30;;
71973;SDS011;59840;52.122;5.404;2022-11-20T09:05:10;10.98;;;5.93;;
71973;SDS011;59840;52.122;5.404;2022-11-20T09:07:36;13.15;;;6.00;;
71973;SDS011;59840;52.122;5.404;2022-11-20T09:10:03;11.73;;;6.25;;
71973;SDS011;59840;52.122;5.404;2022-11-20T09:12:49;13.52;;;6.07;;
71973;SDS011;59840;52.122;5.404;2022-11-20T09:15:18;9.47;;;4.93;;
71973;SDS011;59840;52.122;5.404;2022-11-20T09:17:51;11.15;;;5.18;;
71973;SDS011;59840;52.122;5.404;2022-11-20T09:20:19;10.85;;;5.63;;
71973;SDS011;59840;52.122;5.404;2022-11-20T09:22:46;9.40;;;5.78;;
71973;SDS011;59840;52.122;5.404;2022-11-20T09:25:12;12.65;;;6.18;;
71973;SDS011;59840;52.122;5.404;2022-11-20T09:27:39;12.30;;;6.23;;
71973;SDS011;59840;52.122;5.404;2022-11-20T09:30:07;11.48;;;5.55;;
71973;SDS011;59840;52.122;5.404;2022-11-20T09:32:35;12.75;;;6.68;;
71973;SDS011;59840;52.122;5.404;2022-11-20T09:35:01;10.90;;;6.40;;
71973;SDS011;59840;52.122;5.404;2022-11-20T09:37:28;14.35;;;7.28;;
71973;SDS011;59840;52.122;5.404;2022-11-20T09:39:55;12.17;;;6.63;;
71973;SDS011;59840;52.122;5.404;2022-11-20T09:45:11;13.43;;;7.03;;
71973;SDS011;59840;52.122;5.404;2022-11-20T09:50:33;13.75;;;7.30;;
71973;SDS011;59840;52.122;5.404;2022-11-20T09:55:52;14.80;;;7.95;;
71973;SDS011;59840;52.122;5.404;2022-11-20T09:58:29;15.40;;;7.65;;
71973;SDS011;59840;52.122;5.404;2022-11-20T10:06:44;14.73;;;7.63;;
71973;SDS011;59840;52.122;5.404;2022-11-20T10:09:50;14.18;;;7.53;;
71973;SDS011;59840;52.122;5.404;2022-11-20T10:12:40;16.58;;;7.95;;
71973;SDS011;59840;52.122;5.404;2022-11-20T10:20:37;16.63;;;8.30;;
71973;SDS011;59840;52.122;5.404;2022-11-20T10:23:26;18.33;;;9.77;;
71973;SDS011;59840;52.122;5.404;2022-11-20T10:26:17;18.20;;;9.48;;
71973;SDS011;59840;52.122;5.404;2022-11-20T10:29:13;16.67;;;9.50;;
71973;SDS011;59840;52.122;5.404;2022-11-20T10:31:44;15.63;;;9.00;;
71973;SDS011;59840;52.122;5.404;2022-11-20T10:34:19;16.50;;;9.13;;
71973;SDS011;59840;52.122;5.404;2022-11-20T10:37:15;16.30;;;9.32;;
71973;SDS011;59840;52.122;5.404;2022-11-20T10:42:31;15.20;;;7.68;;
71973;SDS011;59840;52.122;5.404;2022-11-20T10:45:14;16.38;;;7.53;;
71973;SDS011;59840;52.122;5.404;2022-11-20T10:47:47;12.33;;;7.47;;
71973;SDS011;59840;52.122;5.404;2022-11-20T10:50:16;16.23;;;8.18;;
71973;SDS011;59840;52.122;5.404;2022-11-20T10:56:00;17.77;;;8.82;;
71973;SDS011;59840;52.122;5.404;2022-11-20T11:01:14;15.20;;;8.07;;
71973;SDS011;59840;52.122;5.404;2022-11-20T11:03:43;17.98;;;8.77;;
71973;SDS011;59840;52.122;5.404;2022-11-20T11:08:46;17.73;;;8.88;;
71973;SDS011;59840;52.122;5.404;2022-11-20T11:13:48;20.23;;;8.97;;
71973;SDS011;59840;52.122;5.404;2022-11-20T11:16:24;18.08;;;9.23;;
71973;SDS011;59840;52.122;5.404;2022-11-20T11:19:03;17.00;;;9.15;;
71973;SDS011;59840;52.122;5.404;2022-11-20T11:21:31;17.92;;;9.82;;
71973;SDS011;59840;52.122;5.404;2022-11-20T11:24:02;17.95;;;8.90;;
71973;SDS011;59840;52.122;5.404;2022-11-20T11:27:02;19.33;;;9.23;;
71973;SDS011;59840;52.122;5.404;2022-11-20T11:29:42;18.88;;;9.40;;
71973;SDS011;59840;52.122;5.404;2022-11-20T11:32:13;18.45;;;9.05;;
71973;SDS011;59840;52.122;5.404;2022-11-20T11:34:41;19.92;;;9.50;;
71973;SDS011;59840;52.122;5.404;2022-11-20T11:37:25;21.52;;;10.43;;
71973;SDS011;59840;52.122;5.404;2022-11-20T11:40:01;20.90;;;10.43;;
71973;SDS011;59840;52.122;5.404;2022-11-20T11:42:54;20.48;;;9.38;;
71973;SDS011;59840;52.122;5.404;2022-11-20T11:45:24;20.25;;;9.30;;
71973;SDS011;59840;52.122;5.404;2022-11-20T11:47:52;22.75;;;10.48;;
71973;SDS011;59840;52.122;5.404;2022-11-20T11:50:22;23.95;;;11.00;;
71973;SDS011;59840;52.122;5.404;2022-11-20T11:58:25;21.42;;;9.93;;
71973;SDS011;59840;52.122;5.404;2022-11-20T12:01:10;23.50;;;11.10;;
71973;SDS011;59840;52.122;5.404;2022-11-20T12:06:32;22.03;;;10.17;;
71973;SDS011;59840;52.122;5.404;2022-11-20T12:09:03;23.33;;;10.45;;
71973;SDS011;59840;52.122;5.404;2022-11-20T12:11:37;19.63;;;9.73;;
71973;SDS011;59840;52.122;5.404;2022-11-20T12:14:27;22.25;;;10.10;;
71973;SDS011;59840;52.122;5.404;2022-11-20T12:17:00;20.63;;;9.90;;
71973;SDS011;59840;52.122;5.404;2022-11-20T12:19:31;23.57;;;10.10;;
71973;SDS011;59840;52.122;5.404;2022-11-20T12:25:32;21.60;;;11.30;;
71973;SDS011;59840;52.122;5.404;2022-11-20T12:30:39;19.35;;;10.13;;
71973;SDS011;59840;52.122;5.404;2022-11-20T12:36:03;23.58;;;10.73;;
71973;SDS011;59840;52.122;5.404;2022-11-20T12:38:50;18.60;;;9.48;;
71973;SDS011;59840;52.122;5.404;2022-11-20T13:01:04;22.20;;;10.50;;
71973;SDS011;59840;52.122;5.404;2022-11-20T13:06:38;20.92;;;10.68;;
71973;SDS011;59840;52.122;5.404;2022-11-20T13:09:14;19.92;;;10.10;;
71973;SDS011;59840;52.122;5.404;2022-11-20T13:17:28;22.30;;;10.30;;
71973;SDS011;59840;52.122;5.404;2022-11-20T13:20:04;22.58;;;10.30;;
71973;SDS011;59840;52.122;5.404;2022-11-20T13:22:42;18.52;;;9.60;;
71973;SDS011;59840;52.122;5.404;2022-11-20T13:25:32;22.45;;;10.52;;
71973;SDS011;59840;52.122;5.404;2022-11-20T13:28:05;20.13;;;9.80;;
71973;SDS011;59840;52.122;5.404;2022-11-20T13:30:51;18.80;;;10.45;;
71973;SDS011;59840;52.122;5.404;2022-11-20T13:33:33;23.38;;;10.88;;
71973;SDS011;59840;52.122;5.404;2022-11-20T13:36:35;21.70;;;10.05;;
71973;SDS011;59840;52.122;5.404;2022-11-20T13:38:58;22.48;;;11.13;;
71973;SDS011;59840;52.122;5.404;2022-11-20T13:41:26;19.63;;;10.30;;
71973;SDS011;59840;52.122;5.404;2022-11-20T13:44:45;23.42;;;10.07;;
71973;SDS011;59840;52.122;5.404;2022-11-20T13:47:04;17.48;;;9.85;;
71973;SDS011;59840;52.122;5.404;2022-11-20T13:49:48;21.00;;;10.73;;
71973;SDS011;59840;52.122;5.404;2022-11-20T13:55:30;22.03;;;10.73;;
71973;SDS011;59840;52.122;5.404;2022-11-20T14:00:47;24.20;;;10.77;;
71973;SDS011;59840;52.122;5.404;2022-11-20T14:03:19;22.48;;;10.32;;
71973;SDS011;59840;52.122;5.404;2022-11-20T14:06:12;20.55;;;10.15;;
71973;SDS011;59840;52.122;5.404;2022-11-20T14:08:52;20.70;;;10.40;;
71973;SDS011;59840;52.122;5.404;2022-11-20T14:11:20;24.00;;;11.05;;
71973;SDS011;59840;52.122;5.404;2022-11-20T14:16:20;23.45;;;11.30;;
71973;SDS011;59840;52.122;5.404;2022-11-20T14:18:48;24.98;;;11.35;;
71973;SDS011;59840;52.122;5.404;2022-11-20T14:21:21;22.83;;;10.47;;
71973;SDS011;59840;52.122;5.404;2022-11-20T14:23:53;21.50;;;9.98;;
71973;SDS011;59840;52.122;5.404;2022-11-20T14:26:29;23.33;;;9.60;;
71973;SDS011;59840;52.122;5.404;2022-11-20T14:28:57;21.15;;;10.10;;
71973;SDS011;59840;52.122;5.404;2022-11-20T14:31:25;27.67;;;12.10;;
71973;SDS011;59840;52.122;5.404;2022-11-20T14:33:53;23.83;;;10.53;;
71973;SDS011;59840;52.122;5.404;2022-11-20T14:36:22;22.48;;;10.55;;
71973;SDS011;59840;52.122;5.404;2022-11-20T14:38:51;20.45;;;10.43;;
71973;SDS011;59840;52.122;5.404;2022-11-20T14:41:20;20.75;;;10.38;;
71973;SDS011;59840;52.122;5.404;2022-11-20T14:43:51;23.40;;;10.32;;
71973;SDS011;59840;52.122;5.404;2022-11-20T14:46:22;17.83;;;10.17;;
71973;SDS011;59840;52.122;5.404;2022-11-20T14:48:50;22.25;;;10.68;;
71973;SDS011;59840;52.122;5.404;2022-11-20T14:51:27;20.50;;;10.52;;
71973;SDS011;59840;52.122;5.404;2022-11-20T14:53:54;27.30;;;10.85;;
71973;SDS011;59840;52.122;5.404;2022-11-20T14:56:24;20.95;;;9.77;;
71973;SDS011;59840;52.122;5.404;2022-11-20T14:58:57;21.50;;;9.63;;
71973;SDS011;59840;52.122;5.404;2022-11-20T15:01:27;25.73;;;10.32;;
71973;SDS011;59840;52.122;5.404;2022-11-20T15:04:05;25.95;;;10.80;;
71973;SDS011;59840;52.122;5.404;2022-11-20T15:06:32;22.98;;;10.75;;
71973;SDS011;59840;52.122;5.404;2022-11-20T15:08:58;25.40;;;11.90;;
71973;SDS011;59840;52.122;5.404;2022-11-20T15:11:29;23.13;;;11.20;;
71973;SDS011;59840;52.122;5.404;2022-11-20T15:14:03;24.42;;;11.27;;
71973;SDS011;59840;52.122;5.404;2022-11-20T15:16:32;23.45;;;10.93;;
71973;SDS011;59840;52.122;5.404;2022-11-20T15:18:59;26.15;;;10.98;;
71973;SDS011;59840;52.122;5.404;2022-11-20T15:21:26;20.88;;;10.38;;
71973;SDS011;59840;52.122;5.404;2022-11-20T15:23:53;24.00;;;10.17;;
71973;SDS011;59840;52.122;5.404;2022-11-20T15:26:26;28.95;;;12.57;;
71973;SDS011;59840;52.122;5.404;2022-11-20T15:32:46;22.67;;;10.77;;
71973;SDS011;59840;52.122;5.404;2022-11-20T15:35:17;28.73;;;12.38;;
71973;SDS011;59840;52.122;5.404;2022-11-20T15:37:44;25.23;;;11.40;;
71973;SDS011;59840;52.122;5.404;2022-11-20T15:40:10;23.67;;;10.77;;
71973;SDS011;59840;52.122;5.404;2022-11-20T15:42:37;24.27;;;11.30;;
71973;SDS011;59840;52.122;5.404;2022-11-20T15:45:04;23.02;;;10.30;;
71973;SDS011;59840;52.122;5.404;2022-11-20T15:47:32;18.17;;;9.65;;
71973;SDS011;59840;52.122;5.404;2022-11-20T15:50:01;25.43;;;11.47;;
71973;SDS011;59840;52.122;5.404;2022-11-20T15:52:27;23.95;;;11.25;;
71973;SDS011;59840;52.122;5.404;2022-11-20T15:55:09;25.75;;;11.45;;
71973;SDS011;59840;52.122;5.404;2022-11-20T15:57:37;22.48;;;10.45;;
71973;SDS011;59840;52.122;5.404;2022-11-20T16:00:03;29.25;;;11.52;;
71973;SDS011;59840;52.122;5.404;2022-11-20T16:02:30;24.20;;;10.63;;
71973;SDS011;59840;52.122;5.404;2022-11-20T16:04:57;24.63;;;11.60;;
71973;SDS011;59840;52.122;5.404;2022-11-20T16:07:23;21.23;;;10.60;;
71973;SDS011;59840;52.122;5.404;2022-11-20T16:09:50;21.50;;;10.60;;
71973;SDS011;59840;52.122;5.404;2022-11-20T16:12:16;20.67;;;10.57;;
71973;SDS011;59840;52.122;5.404;2022-11-20T16:15:03;18.83;;;9.63;;
71973;SDS011;59840;52.122;5.404;2022-11-20T16:17:48;22.27;;;9.93;;
71973;SDS011;59840;52.122;5.404;2022-11-20T16:20:15;22.00;;;10.80;;
71973;SDS011;59840;52.122;5.404;2022-11-20T16:22:41;22.02;;;10.45;;
71973;SDS011;59840;52.122;5.404;2022-11-20T16:25:08;23.20;;;10.02;;
71973;SDS011;59840;52.122;5.404;2022-11-20T16:27:34;19.10;;;9.33;;
71973;SDS011;59840;52.122;5.404;2022-11-20T16:30:01;21.70;;;10.07;;
71973;SDS011;59840;52.122;5.404;2022-11-20T16:32:28;22.70;;;10.90;;
71973;SDS011;59840;52.122;5.404;2022-11-20T16:34:54;21.58;;;9.38;;